Disclaimer

Please do not use the information listed here in-flight or in-navigation, as they are not provided to us by the airports but are provided by volunteers, so they might be outdated.

Search


Regions


Airport information page

Radio informations:
Tower (TWR) - 118.375 MHz
PERFLIGHT - 121.725 MHz
INFO - 118.85 MHz
Ground (GND) - 119.075 MHz
Automatic Terminal Information Service (ATIS) - 125.35 MHz
APP/RADAR - 120.2 MHz

Airport informations:
Latitude: 43° 26' 08.00" N
Longitude: 005° 12' 49.00" E
Elevation: 74 feet - 23 meters
Operating hours: 24 hour operations
Operating agency: Civil government, landing fees and diplomatic clearance may be required
Timezone: UTC+1(+2DT) - Last Sunday in March to last Sunday in October
Fuel: Jet A1+, Jet A1 with icing inhibitor.

100/130 MIL Spec, low lead, aviation gasoline (BLUE)

Runway information:
13R/31L - 7776 x 148 feet< - >2370 x 45 meters
13L/31R - 11483 x 148 feet< - >3500 x 45 meters

Recent METARs:
LFML 172030Z AUTO 11003KT 030V150 CAVOK 09/05 Q1019 NOSIG
LFML 172100Z AUTO 14005KT 080V190 CAVOK 09/04 Q1019 NOSIG
LFML 172130Z AUTO 07007KT CAVOK 09/05 Q1019 NOSIG

Airport on the map: